createdAt,value
2019-05-18T00:00:54.132Z,34.70
2019-05-18T00:03:20.273Z,36.00
2019-05-18T00:05:46.480Z,34.67
2019-05-18T00:08:12.606Z,33.07
2019-05-18T00:10:39.589Z,34.13
2019-05-18T00:13:05.799Z,34.67
2019-05-18T00:15:32.477Z,33.73
2019-05-18T00:17:58.691Z,32.77
2019-05-18T00:20:24.804Z,33.87
2019-05-18T00:22:50.922Z,33.20
2019-05-18T00:25:17.046Z,32.90
2019-05-18T00:27:43.151Z,32.97
2019-05-18T00:30:09.675Z,32.70
2019-05-18T00:32:35.915Z,34.00
2019-05-18T00:35:04.947Z,33.20
2019-05-18T00:37:31.189Z,33.53
2019-05-18T00:39:57.428Z,33.53
2019-05-18T00:42:23.639Z,33.60
2019-05-18T00:44:49.759Z,34.07
2019-05-18T00:47:16.104Z,32.30
2019-05-18T00:49:42.322Z,33.67
2019-05-18T00:52:08.423Z,35.53
2019-05-18T00:54:34.700Z,35.73
2019-05-18T00:57:00.922Z,33.13
2019-05-18T00:59:27.123Z,32.03
2019-05-18T01:01:53.273Z,33.83
2019-05-18T01:04:19.497Z,31.67
2019-05-18T01:06:45.731Z,33.57
2019-05-18T01:09:11.875Z,33.30
2019-05-18T01:11:38.049Z,33.83
2019-05-18T01:14:04.362Z,33.10
2019-05-18T01:16:30.800Z,32.73
2019-05-18T01:18:56.940Z,34.63
2019-05-18T01:21:23.141Z,32.63
2019-05-18T01:23:49.276Z,33.03
2019-05-18T01:26:15.381Z,32.70
2019-05-18T01:28:41.593Z,35.60
2019-05-18T01:31:07.840Z,33.90
2019-05-18T01:33:34.054Z,34.80
2019-05-18T01:36:00.285Z,35.83
2019-05-18T01:38:26.519Z,36.43
2019-05-18T01:40:52.637Z,34.03
2019-05-18T01:43:18.852Z,35.30
2019-05-18T01:45:45.075Z,34.27
2019-05-18T01:48:14.039Z,41.63
2019-05-18T01:50:39.182Z,37.03
2019-05-18T01:53:05.330Z,38.40
2019-05-18T01:55:31.545Z,36.13
2019-05-18T01:57:57.728Z,35.30
2019-05-18T02:00:24.213Z,37.13
2019-05-18T02:02:50.444Z,35.57
2019-05-18T02:05:16.655Z,36.53
2019-05-18T02:07:42.898Z,38.73
2019-05-18T02:10:09.530Z,39.17
2019-05-18T02:12:35.807Z,39.60
2019-05-18T02:15:04.743Z,38.67
2019-05-18T02:17:31.036Z,40.00
2019-05-18T02:19:57.229Z,40.00
2019-05-18T02:22:23.456Z,40.20
2019-05-18T02:24:49.673Z,40.50
2019-05-18T02:27:15.782Z,40.33
2019-05-18T02:29:42.029Z,41.73
2019-05-18T02:32:08.314Z,41.90
2019-05-18T02:34:34.542Z,37.90
2019-05-18T02:37:00.773Z,38.67
2019-05-18T02:39:26.998Z,37.33
2019-05-18T02:41:53.200Z,37.63
2019-05-18T02:44:19.446Z,39.47
2019-05-18T02:46:45.652Z,38.20
2019-05-18T02:49:11.864Z,36.67
2019-05-18T02:51:38.092Z,37.87
2019-05-18T02:54:04.285Z,34.73
2019-05-18T02:56:30.401Z,36.40
2019-05-18T02:58:56.713Z,38.47
2019-05-18T03:01:22.961Z,37.00
2019-05-18T03:03:49.269Z,39.20
2019-05-18T03:06:15.501Z,35.60
2019-05-18T03:08:41.721Z,36.53
2019-05-18T03:11:07.839Z,34.00
2019-05-18T03:13:34.235Z,35.00
2019-05-18T03:16:00.542Z,37.60
2019-05-18T03:18:26.747Z,36.03
2019-05-18T03:20:53.033Z,39.07
2019-05-18T03:23:19.215Z,36.47
2019-05-18T03:25:45.331Z,36.67
2019-05-18T03:28:11.567Z,37.67
2019-05-18T03:30:37.793Z,39.97
2019-05-18T03:33:04.000Z,39.63
2019-05-18T03:35:30.340Z,39.17
2019-05-18T03:37:56.560Z,38.43
2019-05-18T03:40:22.763Z,38.77
2019-05-18T03:42:49.216Z,40.43
2019-05-18T03:45:15.606Z,44.37
2019-05-18T03:47:41.778Z,43.03
2019-05-18T03:50:08.610Z,41.07
2019-05-18T03:52:34.936Z,39.20
2019-05-18T03:55:01.117Z,40.23
2019-05-18T03:57:27.355Z,40.77
2019-05-18T03:59:53.558Z,40.60
2019-05-18T04:02:19.749Z,40.20
2019-05-18T04:04:46.018Z,39.83
2019-05-18T04:07:12.215Z,39.10
2019-05-18T04:09:38.434Z,39.40
2019-05-18T04:12:04.750Z,39.27
2019-05-18T04:14:31.192Z,39.20
2019-05-18T04:16:57.618Z,40.13
2019-05-18T04:19:23.950Z,41.13
2019-05-18T04:21:50.179Z,39.10
2019-05-18T04:24:16.410Z,40.37
2019-05-18T04:26:42.538Z,39.23
2019-05-18T04:29:08.644Z,39.77
2019-05-18T04:31:34.760Z,40.33
2019-05-18T04:34:01.014Z,43.97
2019-05-18T04:36:27.330Z,43.43
2019-05-18T04:38:53.534Z,42.70
2019-05-18T04:41:19.806Z,43.83
2019-05-18T04:43:46.004Z,40.93
2019-05-18T04:46:12.199Z,42.07
2019-05-18T04:48:40.363Z,40.83
2019-05-18T04:51:06.487Z,40.17
2019-05-18T04:53:32.737Z,39.50
2019-05-18T04:55:59.096Z,39.53
2019-05-18T04:58:25.314Z,42.87
2019-05-18T05:00:51.547Z,42.13
2019-05-18T05:03:17.776Z,42.03
2019-05-18T05:05:43.909Z,42.00
2019-05-18T05:08:10.125Z,41.30
2019-05-18T05:10:36.348Z,38.43
2019-05-18T05:13:02.643Z,37.40
2019-05-18T05:15:28.897Z,38.20
2019-05-18T05:17:55.037Z,35.47
2019-05-18T05:20:21.230Z,38.00
2019-05-18T05:22:47.456Z,34.80
2019-05-18T05:25:13.677Z,37.27
2019-05-18T05:27:39.887Z,34.83
2019-05-18T05:30:07.020Z,32.53
2019-05-18T05:32:33.369Z,34.87
2019-05-18T05:34:59.592Z,33.33
2019-05-18T05:37:25.713Z,35.10
2019-05-18T05:39:51.968Z,35.93
2019-05-18T05:42:18.193Z,33.97
2019-05-18T05:44:44.302Z,35.40
2019-05-18T05:47:10.448Z,35.20
2019-05-18T05:49:36.568Z,34.77
2019-05-18T05:52:02.992Z,36.00
2019-05-18T05:54:29.217Z,35.27
2019-05-18T05:56:55.346Z,36.17
2019-05-18T05:59:21.642Z,34.53
2019-05-18T06:01:47.783Z,35.60
2019-05-18T06:04:13.977Z,35.52
2019-05-18T06:06:40.200Z,35.10
2019-05-18T06:09:06.586Z,34.83
2019-05-18T06:11:32.808Z,36.20
2019-05-18T06:13:58.974Z,34.00
2019-05-18T06:16:25.279Z,37.37
2019-05-18T06:18:51.498Z,37.83
2019-05-18T06:21:17.629Z,37.83
2019-05-18T06:23:43.846Z,36.87
2019-05-18T06:26:10.062Z,37.60
2019-05-18T06:28:36.263Z,37.93
2019-05-18T06:31:02.592Z,36.20
2019-05-18T06:33:28.707Z,37.70
2019-05-18T06:35:54.826Z,37.73
2019-05-18T06:38:20.967Z,37.42
2019-05-18T06:40:47.078Z,38.83
2019-05-18T06:43:13.299Z,39.90
2019-05-18T06:45:39.436Z,40.33
2019-05-18T06:48:05.630Z,37.67
2019-05-18T06:50:31.741Z,40.63
2019-05-18T06:52:58.175Z,40.83
2019-05-18T06:55:25.196Z,39.40
2019-05-18T06:57:51.504Z,43.20
2019-05-18T07:00:17.871Z,40.87
2019-05-18T07:02:43.993Z,38.20
2019-05-18T07:05:10.392Z,42.30
2019-05-18T07:07:36.646Z,41.00
2019-05-18T07:10:05.481Z,41.40
2019-05-18T07:12:31.678Z,42.67
2019-05-18T07:15:00.216Z,42.23
2019-05-18T07:17:25.891Z,42.43
2019-05-18T07:19:52.093Z,42.23
2019-05-18T07:22:18.318Z,43.57
2019-05-18T07:24:44.518Z,42.43
2019-05-18T07:27:10.660Z,38.97
2019-05-18T07:29:36.784Z,40.60
2019-05-18T07:32:03.118Z,41.63
2019-05-18T07:34:32.327Z,40.97
2019-05-18T07:36:58.497Z,41.97
2019-05-18T07:39:24.707Z,42.43
2019-05-18T07:41:50.819Z,43.23
2019-05-18T07:44:16.952Z,44.30
2019-05-18T07:46:43.185Z,45.90
2019-05-18T07:49:09.398Z,44.53
2019-05-18T07:51:37.304Z,45.70
2019-05-18T07:54:03.770Z,44.83
2019-05-18T07:56:29.888Z,42.93
2019-05-18T07:58:56.126Z,45.10
2019-05-18T08:01:22.242Z,43.17
2019-05-18T08:03:48.358Z,44.03
2019-05-18T08:06:14.485Z,43.70
2019-05-18T08:08:40.615Z,44.07
2019-05-18T08:11:06.816Z,42.37
2019-05-18T08:13:32.968Z,43.17
2019-05-18T08:15:59.088Z,42.63
2019-05-18T08:18:25.265Z,44.37
2019-05-18T08:20:51.488Z,42.20
2019-05-18T08:23:17.610Z,42.80
2019-05-18T08:25:43.726Z,45.67
2019-05-18T08:28:09.995Z,43.97
2019-05-18T08:30:36.213Z,47.30
2019-05-18T08:33:02.636Z,45.90
2019-05-18T08:35:28.893Z,44.93
2019-05-18T08:37:55.317Z,45.27
2019-05-18T08:40:21.527Z,46.83
2019-05-18T08:42:47.753Z,43.80
2019-05-18T08:45:15.180Z,44.43
2019-05-18T08:47:41.380Z,44.73
2019-05-18T08:50:07.966Z,44.97
2019-05-18T08:52:35.165Z,45.43
2019-05-18T08:55:01.496Z,45.63
2019-05-18T08:57:27.727Z,43.93
2019-05-18T08:59:54.037Z,44.73
2019-05-18T09:02:20.141Z,43.33
2019-05-18T09:04:46.265Z,45.40
2019-05-18T09:07:12.457Z,44.00
2019-05-18T09:09:38.558Z,42.50
2019-05-18T09:12:04.682Z,42.03
2019-05-18T09:14:31.003Z,41.50
2019-05-18T09:16:57.213Z,44.37
2019-05-18T09:19:23.500Z,44.67
2019-05-18T09:21:49.608Z,45.53
2019-05-18T09:24:15.744Z,45.03
2019-05-18T09:26:41.963Z,43.40
2019-05-18T09:29:08.181Z,41.97
2019-05-18T09:31:34.413Z,45.60
2019-05-18T09:34:00.654Z,44.70
2019-05-18T09:36:26.788Z,44.87
2019-05-18T09:38:53.035Z,42.60
2019-05-18T09:41:19.270Z,41.90
2019-05-18T09:43:45.476Z,41.77
2019-05-18T09:46:11.720Z,41.77
2019-05-18T09:48:37.940Z,42.77
2019-05-18T09:51:04.256Z,43.80
2019-05-18T09:53:30.465Z,42.33
2019-05-18T09:55:56.696Z,42.47
2019-05-18T09:58:23.014Z,42.00
2019-05-18T10:00:49.269Z,44.90
2019-05-18T10:03:15.669Z,40.93
2019-05-18T10:05:41.867Z,43.67
2019-05-18T10:08:08.027Z,43.17
2019-05-18T10:10:34.370Z,43.63
2019-05-18T10:13:00.536Z,45.93
2019-05-18T10:15:26.663Z,42.77
2019-05-18T10:17:52.830Z,43.93
2019-05-18T10:20:19.662Z,43.40
2019-05-18T10:22:59.030Z,45.80
2019-05-18T10:25:14.122Z,44.70
2019-05-18T10:27:40.331Z,47.37
2019-05-18T10:30:08.856Z,46.70
2019-05-18T10:32:35.674Z,47.10
2019-05-18T10:35:03.073Z,45.67
2019-05-18T10:37:29.610Z,46.83
2019-05-18T10:39:55.765Z,46.00
2019-05-18T10:42:21.900Z,43.83
2019-05-18T10:44:48.365Z,46.73
2019-05-18T10:47:14.607Z,43.27
2019-05-18T10:49:40.749Z,43.40
2019-05-18T10:52:06.879Z,45.97
2019-05-18T10:54:33.196Z,43.90
2019-05-18T10:56:59.368Z,45.70
2019-05-18T10:59:25.582Z,44.40
2019-05-18T11:01:51.835Z,43.37
2019-05-18T11:04:17.970Z,43.67
2019-05-18T11:06:44.290Z,45.33
2019-05-18T11:09:10.533Z,46.30
2019-05-18T11:11:36.626Z,45.20
2019-05-18T11:14:02.946Z,47.70
2019-05-18T11:16:30.731Z,46.37
2019-05-18T11:18:56.993Z,47.57
2019-05-18T11:21:23.139Z,48.50
2019-05-18T11:23:49.326Z,47.17
2019-05-18T11:26:15.527Z,51.10
2019-05-18T11:28:41.840Z,48.30
2019-05-18T11:31:08.170Z,46.33
2019-05-18T11:33:34.290Z,48.07
2019-05-18T11:36:00.421Z,50.57
2019-05-18T11:38:26.656Z,50.27
2019-05-18T11:40:52.868Z,50.87
2019-05-18T11:43:19.091Z,51.93
2019-05-18T11:45:47.146Z,50.70
2019-05-18T11:48:13.260Z,54.50
2019-05-18T11:50:39.466Z,53.13
2019-05-18T11:53:05.628Z,51.03
2019-05-18T11:55:33.882Z,55.80
2019-05-18T11:58:00.101Z,55.07
2019-05-18T12:00:26.650Z,54.87
2019-05-18T12:02:52.754Z,54.30
2019-05-18T12:05:19.205Z,54.90
2019-05-18T12:07:45.415Z,53.67
2019-05-18T12:10:12.850Z,54.67
2019-05-18T12:12:39.203Z,56.97
2019-05-18T12:15:07.961Z,56.70
2019-05-18T12:17:34.824Z,56.33
2019-05-18T12:20:01.151Z,56.33
2019-05-18T12:22:27.661Z,53.70
2019-05-18T12:24:53.754Z,52.30
2019-05-18T12:27:22.094Z,54.67
2019-05-18T12:29:48.220Z,54.17
2019-05-18T12:32:14.429Z,51.80
2019-05-18T12:34:40.532Z,54.33
2019-05-18T12:37:08.986Z,55.30
2019-05-18T12:39:35.202Z,50.37
2019-05-18T12:42:01.310Z,51.80
2019-05-18T12:44:27.543Z,47.17
2019-05-18T12:46:53.931Z,49.27
2019-05-18T12:49:20.242Z,49.70
2019-05-18T12:51:46.485Z,50.63
2019-05-18T12:54:12.791Z,52.60
2019-05-18T12:56:38.921Z,49.63
2019-05-18T12:59:05.064Z,51.40
2019-05-18T13:01:31.264Z,54.23
2019-05-18T13:03:57.386Z,55.97
2019-05-18T13:06:23.658Z,52.97
2019-05-18T13:08:49.783Z,52.53
2019-05-18T13:11:20.527Z,49.53
2019-05-18T13:13:46.805Z,52.63
2019-05-18T13:16:13.031Z,49.47
2019-05-18T13:18:39.329Z,47.87
2019-05-18T13:21:05.474Z,49.27
2019-05-18T13:23:31.881Z,51.13
2019-05-18T13:25:58.008Z,49.50
2019-05-18T13:28:24.144Z,51.67
2019-05-18T13:30:50.252Z,52.43
2019-05-18T13:33:16.452Z,54.37
2019-05-18T13:35:45.510Z,56.40
2019-05-18T13:38:10.639Z,52.50
2019-05-18T13:40:36.839Z,49.53
2019-05-18T13:43:03.096Z,51.57
2019-05-18T13:45:29.301Z,53.90
2019-05-18T13:47:55.513Z,56.97
2019-05-18T13:50:21.968Z,56.90
2019-05-18T13:52:48.177Z,54.20
2019-05-18T13:55:15.113Z,55.37
2019-05-18T13:57:41.315Z,54.07
2019-05-18T14:00:08.336Z,55.23
2019-05-18T14:02:34.675Z,57.00
2019-05-18T14:05:00.887Z,53.30
2019-05-18T14:07:27.020Z,55.97
2019-05-18T14:09:53.225Z,56.97
2019-05-18T14:12:19.477Z,56.60
2019-05-18T14:14:45.673Z,57.57
2019-05-18T14:17:11.891Z,56.77
2019-05-18T14:19:38.140Z,57.30
2019-05-18T14:22:04.461Z,55.10
2019-05-18T14:24:30.901Z,53.10
2019-05-18T14:26:57.148Z,55.03
2019-05-18T14:29:23.249Z,55.17
2019-05-18T14:31:49.366Z,53.73
2019-05-18T14:34:15.498Z,52.10
2019-05-18T14:36:41.631Z,56.93
2019-05-18T14:39:07.933Z,54.97
2019-05-18T14:41:34.085Z,56.27
2019-05-18T14:44:00.333Z,53.30
2019-05-18T14:46:26.541Z,55.30
2019-05-18T14:48:52.682Z,53.20
2019-05-18T14:51:18.802Z,54.50
2019-05-18T14:53:45.150Z,53.77
2019-05-18T14:56:11.724Z,53.80
2019-05-18T14:58:37.874Z,51.67
2019-05-18T15:01:04.077Z,53.17
2019-05-18T15:03:30.317Z,53.43
2019-05-18T15:05:56.517Z,52.23
2019-05-18T15:08:22.637Z,51.13
2019-05-18T15:10:48.885Z,50.77
2019-05-18T15:13:15.066Z,51.43
2019-05-18T15:15:41.172Z,49.57
2019-05-18T15:18:07.429Z,48.37
2019-05-18T15:20:33.668Z,52.40
2019-05-18T15:22:59.848Z,47.73
2019-05-18T15:25:26.190Z,49.87
2019-05-18T15:27:52.419Z,50.43
2019-05-18T15:30:19.533Z,47.67
2019-05-18T15:32:45.687Z,50.70
2019-05-18T15:35:12.816Z,52.63
2019-05-18T15:37:39.019Z,50.97
2019-05-18T15:40:07.113Z,50.87
2019-05-18T15:42:33.353Z,50.70
2019-05-18T15:44:59.541Z,52.63
2019-05-18T15:47:25.703Z,52.10
2019-05-18T15:49:51.915Z,49.97
2019-05-18T15:52:18.108Z,51.97
2019-05-18T15:54:44.267Z,52.63
2019-05-18T15:57:10.468Z,53.33
2019-05-18T15:59:36.633Z,51.00
2019-05-18T16:02:06.464Z,49.70
2019-05-18T16:04:31.011Z,52.40
2019-05-18T16:06:57.121Z,55.13
2019-05-18T16:09:23.333Z,52.43
2019-05-18T16:11:49.585Z,53.73
2019-05-18T16:14:15.893Z,53.37
2019-05-18T16:16:42.042Z,53.40
2019-05-18T16:19:08.235Z,54.07
2019-05-18T16:21:34.343Z,52.37
2019-05-18T16:24:00.634Z,52.93
2019-05-18T16:26:27.276Z,54.53
2019-05-18T16:28:53.493Z,52.67
2019-05-18T16:31:19.825Z,56.77
2019-05-18T16:33:46.060Z,50.13
2019-05-18T16:36:12.253Z,49.27
2019-05-18T16:38:38.527Z,50.60
2019-05-18T16:41:04.743Z,49.13
2019-05-18T16:43:31.014Z,49.73
2019-05-18T16:45:57.168Z,50.60
2019-05-18T16:48:23.388Z,49.80
2019-05-18T16:50:49.598Z,49.63
2019-05-18T16:53:15.834Z,50.63
2019-05-18T16:55:41.999Z,51.50
2019-05-18T16:58:08.260Z,53.20
2019-05-18T17:00:34.397Z,48.17
2019-05-18T17:03:00.503Z,54.77
2019-05-18T17:05:26.625Z,54.03
2019-05-18T17:07:52.865Z,55.77
2019-05-18T17:10:19.267Z,51.17
2019-05-18T17:12:45.378Z,53.37
2019-05-18T17:15:11.825Z,52.20
2019-05-18T17:17:38.140Z,53.50
2019-05-18T17:20:04.668Z,51.40
2019-05-18T17:22:31.043Z,52.73
2019-05-18T17:24:57.203Z,60.97
2019-05-18T17:27:23.401Z,54.87
2019-05-18T17:29:49.651Z,52.93
2019-05-18T17:32:15.857Z,52.33
2019-05-18T17:34:41.981Z,49.20
2019-05-18T17:37:08.121Z,51.10
2019-05-18T17:39:34.278Z,52.30
2019-05-18T17:42:00.511Z,50.93
2019-05-18T17:44:26.755Z,49.10
2019-05-18T17:46:52.970Z,51.60
2019-05-18T17:49:26.890Z,50.07
2019-05-18T17:51:47.390Z,48.93
2019-05-18T17:54:13.599Z,46.60
2019-05-18T17:56:39.799Z,49.03
2019-05-18T17:59:06.040Z,50.67
2019-05-18T18:01:32.274Z,49.40
2019-05-18T18:03:58.514Z,48.90
2019-05-18T18:06:24.664Z,53.27
2019-05-18T18:08:50.969Z,48.23
2019-05-18T18:11:17.188Z,49.63
2019-05-18T18:13:43.434Z,48.37
2019-05-18T18:16:09.643Z,49.60
2019-05-18T18:18:35.765Z,52.27
2019-05-18T18:21:02.013Z,50.73
2019-05-18T18:23:28.231Z,51.47
2019-05-18T18:25:54.453Z,53.40
2019-05-18T18:28:20.830Z,50.77
2019-05-18T18:30:47.051Z,53.70
2019-05-18T18:33:13.459Z,53.70
2019-05-18T18:35:39.819Z,54.83
2019-05-18T18:38:06.209Z,52.23
2019-05-18T18:40:32.655Z,52.50
2019-05-18T18:42:58.912Z,52.67
2019-05-18T18:45:25.135Z,56.70
2019-05-18T18:47:51.348Z,51.53
2019-05-18T18:50:17.801Z,50.03
2019-05-18T18:52:44.007Z,53.47
2019-05-18T18:55:10.442Z,50.20
2019-05-18T18:57:41.330Z,52.87
2019-05-18T19:00:07.018Z,53.17
2019-05-18T19:02:33.342Z,50.17
2019-05-18T19:04:59.512Z,50.20
2019-05-18T19:07:25.631Z,49.37
2019-05-18T19:09:51.858Z,49.33
2019-05-18T19:12:18.132Z,50.63
2019-05-18T19:14:44.355Z,49.10
2019-05-18T19:17:10.599Z,50.10
2019-05-18T19:19:40.016Z,51.43
2019-05-18T19:22:04.972Z,52.23
2019-05-18T19:24:31.193Z,49.17
2019-05-18T19:26:57.474Z,51.43
2019-05-18T19:29:23.807Z,47.60
2019-05-18T19:31:50.006Z,49.13
2019-05-18T19:34:16.180Z,53.70
2019-05-18T19:36:42.430Z,49.27
2019-05-18T19:39:08.960Z,48.57
2019-05-18T19:41:35.232Z,50.33
2019-05-18T19:44:01.442Z,48.97
2019-05-18T19:46:27.677Z,49.47
2019-05-18T19:48:53.983Z,49.73
2019-05-18T19:51:20.195Z,48.33
2019-05-18T19:53:46.418Z,48.63
2019-05-18T19:56:12.598Z,48.70
2019-05-18T19:58:38.791Z,50.77
2019-05-18T20:01:05.023Z,49.17
2019-05-18T20:03:31.256Z,48.97
2019-05-18T20:05:57.458Z,45.97
2019-05-18T20:08:23.661Z,46.53
2019-05-18T20:10:49.806Z,47.67
2019-05-18T20:13:15.921Z,47.13
2019-05-18T20:15:42.195Z,45.97
2019-05-18T20:18:08.491Z,53.37
2019-05-18T20:20:34.797Z,47.03
2019-05-18T20:23:01.041Z,47.07
2019-05-18T20:25:27.360Z,46.67
2019-05-18T20:27:53.470Z,47.37
2019-05-18T20:30:19.867Z,46.97
2019-05-18T20:32:46.008Z,41.93
2019-05-18T20:35:12.536Z,44.47
2019-05-18T20:37:38.646Z,45.80
2019-05-18T20:40:05.429Z,42.83
2019-05-18T20:42:31.638Z,43.93
2019-05-18T20:44:57.848Z,44.63
2019-05-18T20:47:24.111Z,44.63
2019-05-18T20:49:50.296Z,44.07
2019-05-18T20:52:16.445Z,42.30
2019-05-18T20:54:42.718Z,44.67
2019-05-18T20:57:08.937Z,45.20
2019-05-18T20:59:35.082Z,43.97
2019-05-18T21:02:01.409Z,44.20
2019-05-18T21:04:27.716Z,46.37
2019-05-18T21:06:54.408Z,44.33
2019-05-18T21:09:20.685Z,46.57
2019-05-18T21:11:46.893Z,46.13
2019-05-18T21:14:13.107Z,46.03
2019-05-18T21:16:39.359Z,45.63
2019-05-18T21:19:05.550Z,46.07
2019-05-18T21:21:31.676Z,46.23
2019-05-18T21:23:57.894Z,47.27
2019-05-18T21:26:24.006Z,45.27
2019-05-18T21:28:56.500Z,46.73
2019-05-18T21:31:18.180Z,47.07
2019-05-18T21:33:44.298Z,46.50
2019-05-18T21:36:10.504Z,45.37
2019-05-18T21:38:36.665Z,47.07
2019-05-18T21:41:03.016Z,47.60
2019-05-18T21:43:29.199Z,46.93
2019-05-18T21:45:55.446Z,45.53
2019-05-18T21:51:01.083Z,47.90
2019-05-18T21:53:27.306Z,44.27
2019-05-18T21:55:53.436Z,44.13
2019-05-18T21:58:19.694Z,43.03
2019-05-18T22:00:47.116Z,45.97
2019-05-18T22:03:13.425Z,45.73
2019-05-18T22:05:39.681Z,48.07
2019-05-18T22:08:05.899Z,46.93
2019-05-18T22:10:32.199Z,45.27
2019-05-18T22:12:58.446Z,49.30
2019-05-18T22:15:27.530Z,46.67
2019-05-18T22:18:01.988Z,46.80
2019-05-18T22:20:28.212Z,49.00
2019-05-18T22:22:54.441Z,49.30
2019-05-18T22:25:20.580Z,52.07
2019-05-18T22:27:46.789Z,51.50
2019-05-18T22:30:13.024Z,51.87
2019-05-18T22:32:39.431Z,51.00
2019-05-18T22:35:05.741Z,52.47
2019-05-18T22:37:31.875Z,52.03
2019-05-18T22:39:58.134Z,53.13
2019-05-18T22:42:24.340Z,53.50
2019-05-18T22:44:50.541Z,54.90
2019-05-18T22:47:16.702Z,52.20
2019-05-18T22:49:42.834Z,53.70
2019-05-18T22:52:09.097Z,55.90
2019-05-18T22:54:35.335Z,56.53
2019-05-18T22:57:01.538Z,57.57
2019-05-18T22:59:27.655Z,55.80
2019-05-18T23:01:53.811Z,53.63
2019-05-18T23:04:20.024Z,54.13
2019-05-18T23:06:46.240Z,56.67
2019-05-18T23:09:12.469Z,56.00
2019-05-18T23:11:38.668Z,54.50
2019-05-18T23:14:04.779Z,54.00
2019-05-18T23:16:30.919Z,53.70
2019-05-18T23:18:57.502Z,55.33
2019-05-18T23:21:23.649Z,53.90
2019-05-18T23:23:49.934Z,55.00
2019-05-18T23:26:16.128Z,53.60
2019-05-18T23:28:42.339Z,54.77
2019-05-18T23:31:08.463Z,54.03
2019-05-18T23:33:34.747Z,54.73
2019-05-18T23:36:00.967Z,54.67
2019-05-18T23:38:27.202Z,55.30
2019-05-18T23:40:53.423Z,53.33
2019-05-18T23:43:19.568Z,54.50
2019-05-18T23:45:45.741Z,54.83
2019-05-18T23:48:11.963Z,54.67
2019-05-18T23:50:38.196Z,53.90
2019-05-18T23:53:04.355Z,53.10
2019-05-18T23:55:30.576Z,54.73
2019-05-18T23:58:04.936Z,53.27
